Waverly, IA

1:12 PM CDT on July 25, 2016 (GMT -0500)
TCR @ 16th St SW & Leitha Terr | | Change Station

Elev 948 ft 42.72 °N, 92.49 °W | Updated 5 minutes ago

Clear
Clear
81.1 °F
Feels Like 83 °F
N
5.8
Wind Variable Wind from WNW

Today
High -- | Low -- °F
--% Chance of Precip.
Yesterday
High -- | Low -- °F
Precip. -- in
Pressure 30.05 in
Visibility 10.0 miles
Clouds Clear
Heat Index 83 °F
Dew Point 64 °F
Humidity 56%
Rainfall 0.00 in
Snow Depth Not available.
5:54 AM 8:37 PM
Waning Gibbous, 64% visible
METAR KALO 251754Z AUTO 33011KT 10SM CLR 28/17 A3006 RMK AO2 SLP175 T02780167 10278 20189 58001
Pressure 30.05 in
Visibility 10.0 miles
Clouds Clear
Heat Index 83 °F
Dew Point 64 °F
Humidity 56%
Rainfall 0.00 in
Snow Depth Not available.
5:54 AM 8:37 PM
Waning Gibbous, 64% visible
METAR KALO 251754Z AUTO 33011KT 10SM CLR 28/17 A3006 RMK AO2 SLP175 T02780167 10278 20189 58001

10-Day Weather Forecast

Almanac

Astronomy

Jul. 25, 2016 Rise Set
Actual Time
Civil Twilight
Nautical Twilight
Astronomical Twilight
Moon
Length of Visible Light
Length of Day
Tomorrow will be .
, % of the Moon is Illuminated

Today's Extremes

State Highs State Lows

Community

WunderPhotos

Upload Photos

1,927,365 photos uploaded!

WunderBlog® & News

Nearby

Air Quality

  Air Quality AQ Index Pollutant
Not available.

Snow Depth

Station Depth Elevation

Earthquake Activity

City Distance Mag. Time & Date
Minimum magnitude displayed is 2.5.

Coastal Water Temperatures

Place Temperature

Stations

Nearby Weather Stations

Station Location Temp. Windchill Dew Point Humidity Wind Precip. Elev Updated Type
                   

Watches & Warnings

There are currently no watches in effect.